createdAt,value
2019-03-17T00:02:11.488Z,10.80
2019-03-17T00:04:39.873Z,10.90
2019-03-17T00:07:08.255Z,10.90
2019-03-17T00:09:36.661Z,11.00
2019-03-17T00:12:05.047Z,11.00
2019-03-17T00:14:33.431Z,11.00
2019-03-17T00:17:01.839Z,11.00
2019-03-17T00:19:30.219Z,11.00
2019-03-17T00:21:58.644Z,11.10
2019-03-17T00:24:27.037Z,11.10
2019-03-17T00:26:55.418Z,11.10
2019-03-17T00:29:23.829Z,11.20
2019-03-17T00:31:52.212Z,11.20
2019-03-17T00:34:20.593Z,11.20
2019-03-17T00:36:49.011Z,11.20
2019-03-17T00:39:17.396Z,11.20
2019-03-17T00:41:45.802Z,11.20
2019-03-17T00:44:14.203Z,11.30
2019-03-17T00:46:42.593Z,11.30
2019-03-17T00:49:10.987Z,11.30
2019-03-17T00:51:39.619Z,11.30
2019-03-17T00:54:08.083Z,11.30
2019-03-17T00:56:36.463Z,11.30
2019-03-17T00:59:04.859Z,11.30
2019-03-17T01:01:33.257Z,11.30
2019-03-17T01:04:01.660Z,11.30
2019-03-17T01:06:30.052Z,11.30
2019-03-17T01:08:58.439Z,11.30
2019-03-17T01:11:26.833Z,11.30
2019-03-17T01:13:55.219Z,11.30
2019-03-17T01:16:23.610Z,11.30
2019-03-17T01:18:51.995Z,11.30
2019-03-17T01:21:20.653Z,11.30
2019-03-17T01:23:49.040Z,11.30
2019-03-17T01:26:17.431Z,11.30
2019-03-17T01:28:45.856Z,11.40
2019-03-17T01:31:14.243Z,11.30
2019-03-17T01:33:42.631Z,11.40
2019-03-17T01:36:11.028Z,11.30
2019-03-17T01:38:39.411Z,11.30
2019-03-17T01:41:07.811Z,11.40
2019-03-17T01:43:36.217Z,11.40
2019-03-17T01:46:04.603Z,11.40
2019-03-17T01:48:33.007Z,11.30
2019-03-17T01:51:01.407Z,11.30
2019-03-17T01:53:29.799Z,11.30
2019-03-17T01:55:58.187Z,11.30
2019-03-17T01:58:26.599Z,11.30
2019-03-17T02:00:54.975Z,11.30
2019-03-17T02:03:23.383Z,11.30
2019-03-17T02:05:51.817Z,11.20
2019-03-17T02:08:20.197Z,11.00
2019-03-17T02:10:48.588Z,11.00
2019-03-17T02:13:16.983Z,10.90
2019-03-17T02:15:45.372Z,11.00
2019-03-17T02:18:13.791Z,11.00
2019-03-17T02:20:42.182Z,11.00
2019-03-17T02:23:10.567Z,11.00
2019-03-17T02:25:38.963Z,11.10
2019-03-17T02:28:07.357Z,11.10
2019-03-17T02:30:35.736Z,11.10
2019-03-17T02:33:04.127Z,11.10
2019-03-17T02:35:39.684Z,11.10
2019-03-17T02:38:02.676Z,11.10
2019-03-17T02:40:31.112Z,11.10
2019-03-17T02:42:59.511Z,11.20
2019-03-17T02:45:27.907Z,11.20
2019-03-17T02:47:56.288Z,11.20
2019-03-17T02:50:24.676Z,11.20
2019-03-17T02:52:53.076Z,11.20
2019-03-17T02:55:23.008Z,11.20
2019-03-17T02:57:51.428Z,11.20
2019-03-17T03:00:19.825Z,11.20
2019-03-17T03:02:48.213Z,11.10
2019-03-17T03:05:16.597Z,11.10
2019-03-17T03:07:44.990Z,11.20
2019-03-17T03:10:13.452Z,11.20
2019-03-17T03:12:41.840Z,11.20
2019-03-17T03:15:10.367Z,11.10
2019-03-17T03:17:38.780Z,11.10
2019-03-17T03:20:09.419Z,11.10
2019-03-17T03:22:37.804Z,11.10
2019-03-17T03:25:08.132Z,11.10
2019-03-17T03:27:36.492Z,11.10
2019-03-17T03:30:13.255Z,11.10
2019-03-17T03:32:41.787Z,11.10
2019-03-17T03:35:10.352Z,11.10
2019-03-17T03:37:38.794Z,11.10
2019-03-17T03:40:09.779Z,11.10
2019-03-17T03:42:38.175Z,11.10
2019-03-17T03:45:11.101Z,11.10
2019-03-17T03:47:39.492Z,11.10
2019-03-17T03:50:11.733Z,11.10
2019-03-17T03:52:40.115Z,11.20
2019-03-17T03:55:09.444Z,11.10
2019-03-17T03:57:37.835Z,11.10
2019-03-17T04:00:09.527Z,11.10
2019-03-17T04:02:37.983Z,11.10
2019-03-17T04:05:07.334Z,11.10
2019-03-17T04:07:35.732Z,11.10
2019-03-17T04:10:05.959Z,11.10
2019-03-17T04:12:34.356Z,11.10
2019-03-17T04:15:02.756Z,11.10
2019-03-17T04:17:31.381Z,11.00
2019-03-17T04:19:59.772Z,11.00
2019-03-17T04:22:28.172Z,10.90
2019-03-17T04:24:56.560Z,11.00
2019-03-17T04:27:24.948Z,10.90
2019-03-17T04:29:53.355Z,10.90
2019-03-17T04:32:21.719Z,10.90
2019-03-17T04:34:50.107Z,10.90
2019-03-17T04:37:18.520Z,10.80
2019-03-17T04:39:46.910Z,10.90
2019-03-17T04:42:15.315Z,10.90
2019-03-17T04:44:43.679Z,10.90
2019-03-17T04:47:12.083Z,10.90
2019-03-17T04:49:40.481Z,10.90
2019-03-17T04:52:08.880Z,10.90
2019-03-17T04:54:37.285Z,10.80
2019-03-17T04:57:05.752Z,10.80
2019-03-17T04:59:34.216Z,10.80
2019-03-17T05:02:02.619Z,10.80
2019-03-17T05:04:31.015Z,10.80
2019-03-17T05:06:59.415Z,10.80
2019-03-17T05:09:27.847Z,10.70
2019-03-17T05:11:56.295Z,10.70
2019-03-17T05:14:24.889Z,10.70
2019-03-17T05:16:53.339Z,10.50
2019-03-17T05:19:21.739Z,10.40
2019-03-17T05:21:50.127Z,10.40
2019-03-17T05:24:18.511Z,10.30
2019-03-17T05:26:46.903Z,10.20
2019-03-17T05:29:15.296Z,10.20
2019-03-17T05:31:43.684Z,10.10
2019-03-17T05:34:12.072Z,10.20
2019-03-17T05:36:40.462Z,10.10
2019-03-17T05:39:09.072Z,9.90
2019-03-17T05:41:37.472Z,9.80
2019-03-17T05:44:05.863Z,9.80
2019-03-17T05:46:34.247Z,9.80
2019-03-17T05:49:02.637Z,9.70
2019-03-17T05:51:31.029Z,9.70
2019-03-17T05:53:59.410Z,9.70
2019-03-17T05:56:27.797Z,9.60
2019-03-17T05:58:56.180Z,9.50
2019-03-17T06:04:02.455Z,9.60
2019-03-17T06:06:30.852Z,9.60
2019-03-17T06:08:59.251Z,9.60
2019-03-17T06:11:27.651Z,9.60
2019-03-17T06:13:56.039Z,9.60
2019-03-17T06:16:24.449Z,9.50
2019-03-17T06:18:52.835Z,9.50
2019-03-17T06:21:21.231Z,9.50
2019-03-17T06:23:49.634Z,9.50
2019-03-17T06:26:18.024Z,9.40
2019-03-17T06:28:46.415Z,9.30
2019-03-17T06:31:14.904Z,9.30
2019-03-17T06:33:43.302Z,9.40
2019-03-17T06:36:11.741Z,9.40
2019-03-17T06:38:40.139Z,9.30
2019-03-17T06:41:08.625Z,9.30
2019-03-17T06:43:37.031Z,9.40
2019-03-17T06:46:05.421Z,9.40
2019-03-17T06:48:35.178Z,9.40
2019-03-17T06:53:55.504Z,9.30
2019-03-17T06:56:13.075Z,9.40
2019-03-17T06:58:41.466Z,9.40
2019-03-17T07:01:09.868Z,9.40
2019-03-17T07:03:38.255Z,9.40
2019-03-17T07:06:06.649Z,9.40
2019-03-17T07:08:35.064Z,9.40
2019-03-17T07:11:03.451Z,9.40
2019-03-17T07:13:31.854Z,9.40
2019-03-17T07:16:00.245Z,9.40
2019-03-17T07:18:28.640Z,9.50
2019-03-17T07:20:57.038Z,9.50
2019-03-17T07:23:25.421Z,9.60
2019-03-17T07:25:53.815Z,9.60
2019-03-17T07:28:22.558Z,9.60
2019-03-17T07:30:50.950Z,9.60
2019-03-17T07:33:19.340Z,9.60
2019-03-17T07:35:47.740Z,9.60
2019-03-17T07:38:16.124Z,9.60
2019-03-17T07:40:44.567Z,9.70
2019-03-17T07:43:13.048Z,9.70
2019-03-17T07:45:41.436Z,9.80
2019-03-17T07:48:09.821Z,9.80
2019-03-17T07:50:38.226Z,9.80
2019-03-17T07:53:06.618Z,9.80
2019-03-17T07:55:35.086Z,9.80
2019-03-17T07:58:03.610Z,9.80
2019-03-17T08:00:32.552Z,9.70
2019-03-17T08:03:01.075Z,9.70
2019-03-17T08:05:29.538Z,9.60
2019-03-17T08:08:08.775Z,9.60
2019-03-17T08:10:28.181Z,9.40
2019-03-17T08:12:56.595Z,9.20
2019-03-17T08:15:24.996Z,8.90
2019-03-17T08:17:53.395Z,8.80
2019-03-17T08:20:21.806Z,8.50
2019-03-17T08:22:50.207Z,8.40
2019-03-17T08:25:18.588Z,8.40
2019-03-17T08:27:47.015Z,8.40
2019-03-17T08:30:16.648Z,8.40
2019-03-17T08:32:45.033Z,8.50
2019-03-17T08:35:13.432Z,8.60
2019-03-17T08:37:41.825Z,8.60
2019-03-17T08:40:12.460Z,8.60
2019-03-17T08:42:40.892Z,8.60
2019-03-17T08:45:11.437Z,8.50
2019-03-17T08:47:39.825Z,8.40
2019-03-17T08:50:15.379Z,8.40
2019-03-17T08:52:43.788Z,8.40
2019-03-17T08:55:12.623Z,8.40
2019-03-17T08:57:41.095Z,8.50
2019-03-17T09:00:19.789Z,8.60
2019-03-17T09:02:48.230Z,8.70
2019-03-17T09:05:16.722Z,8.80
2019-03-17T09:07:45.356Z,8.80
2019-03-17T09:10:14.889Z,8.90
2019-03-17T09:12:43.283Z,9.00
2019-03-17T09:15:11.704Z,9.00
2019-03-17T09:17:40.189Z,9.00
2019-03-17T09:20:13.646Z,9.00
2019-03-17T09:22:42.027Z,9.10
2019-03-17T09:25:11.116Z,9.10
2019-03-17T09:27:39.642Z,9.20
2019-03-17T09:30:13.695Z,9.20
2019-03-17T09:32:42.340Z,9.20
2019-03-17T09:35:11.011Z,9.20
2019-03-17T09:37:39.575Z,9.30
2019-03-17T09:40:13.102Z,9.40
2019-03-17T09:42:41.659Z,9.60
2019-03-17T09:45:14.317Z,9.90
2019-03-17T09:47:42.721Z,10.20
2019-03-17T09:50:18.831Z,10.40
2019-03-17T09:52:47.235Z,10.60
2019-03-17T09:55:15.789Z,10.60
2019-03-17T09:57:45.541Z,10.70
2019-03-17T10:00:22.065Z,11.40
2019-03-17T10:02:50.479Z,11.50
2019-03-17T10:05:18.950Z,13.40
2019-03-17T10:07:47.365Z,15.10
2019-03-17T10:10:17.995Z,16.50
2019-03-17T10:12:46.400Z,16.40
2019-03-17T10:15:19.705Z,15.50
2019-03-17T10:20:19.812Z,14.00
2019-03-17T10:22:48.216Z,13.40
2019-03-17T10:25:16.710Z,12.90
2019-03-17T10:27:45.079Z,12.30
2019-03-17T10:30:16.604Z,12.10
2019-03-17T10:32:45.015Z,11.90
2019-03-17T10:35:13.568Z,11.80
2019-03-17T10:37:42.260Z,11.60
2019-03-17T10:40:21.549Z,11.20
2019-03-17T10:42:50.114Z,10.90
2019-03-17T10:47:46.594Z,10.20
2019-03-17T10:52:44.695Z,9.60
2019-03-17T10:55:13.551Z,9.20
2019-03-17T10:57:42.222Z,9.00
2019-03-17T11:00:20.565Z,8.60
2019-03-17T11:02:48.966Z,8.30
2019-03-17T11:05:17.422Z,8.10
2019-03-17T11:07:45.909Z,8.00
2019-03-17T11:10:14.745Z,7.80
2019-03-17T11:12:43.156Z,7.80
2019-03-17T11:15:16.790Z,7.80
2019-03-17T11:17:45.456Z,7.70
2019-03-17T11:20:14.290Z,7.70
2019-03-17T11:22:42.833Z,7.80
2019-03-17T11:25:16.248Z,7.90
2019-03-17T11:27:44.690Z,7.80
2019-03-17T11:30:20.316Z,7.90
2019-03-17T11:32:48.751Z,7.90
2019-03-17T11:35:17.234Z,8.00
2019-03-17T11:37:45.650Z,8.20
2019-03-17T11:40:18.961Z,8.20
2019-03-17T11:42:49.884Z,8.40
2019-03-17T11:45:18.116Z,8.50
2019-03-17T11:47:46.665Z,8.80
2019-03-17T11:50:20.178Z,9.20
2019-03-17T11:52:48.805Z,9.70
2019-03-17T11:55:17.502Z,10.60
2019-03-17T11:57:46.135Z,11.40
2019-03-17T12:00:22.576Z,12.10
2019-03-17T12:02:50.986Z,12.50
2019-03-17T12:05:19.386Z,12.80
2019-03-17T12:07:47.795Z,13.10
2019-03-17T12:10:23.092Z,13.40
2019-03-17T12:12:51.573Z,13.70
2019-03-17T12:15:34.480Z,14.00
2019-03-17T12:18:02.931Z,14.10
2019-03-17T12:20:31.337Z,14.30
2019-03-17T12:22:59.838Z,14.20
2019-03-17T12:25:28.232Z,14.50
2019-03-17T12:27:56.640Z,14.60
2019-03-17T12:30:28.304Z,15.00
2019-03-17T12:32:56.771Z,15.30
2019-03-17T12:35:25.257Z,15.70
2019-03-17T12:37:53.656Z,15.90
2019-03-17T12:40:22.128Z,16.00
2019-03-17T12:42:50.567Z,15.90
2019-03-17T12:45:18.999Z,15.80
2019-03-17T12:47:47.452Z,16.00
2019-03-17T12:50:18.958Z,16.20
2019-03-17T12:52:47.372Z,16.10
2019-03-17T12:55:15.788Z,16.20
2019-03-17T12:57:44.214Z,16.30
2019-03-17T13:00:15.841Z,16.00
2019-03-17T13:02:44.276Z,16.00
2019-03-17T13:05:13.024Z,16.10
2019-03-17T13:07:41.549Z,16.00
2019-03-17T13:10:17.459Z,16.10
2019-03-17T13:12:45.956Z,16.10
2019-03-17T13:15:14.350Z,16.10
2019-03-17T13:17:42.736Z,16.30
2019-03-17T13:20:15.019Z,16.30
2019-03-17T13:22:43.438Z,16.40
2019-03-17T13:25:12.597Z,16.30
2019-03-17T13:27:41.305Z,16.40
2019-03-17T13:30:12.440Z,16.50
2019-03-17T13:32:40.844Z,15.90
2019-03-17T13:35:10.252Z,15.70
2019-03-17T13:37:38.801Z,15.30
2019-03-17T13:40:29.579Z,14.90
2019-03-17T13:42:51.373Z,14.50
2019-03-17T13:45:19.768Z,13.80
2019-03-17T13:47:48.215Z,13.50
2019-03-17T13:50:20.439Z,12.30
2019-03-17T13:52:50.319Z,12.40
2019-03-17T13:55:18.752Z,11.80
2019-03-17T13:57:55.839Z,12.30
2019-03-17T14:00:24.242Z,12.70
2019-03-17T14:02:52.644Z,13.20
2019-03-17T14:05:21.080Z,13.30
2019-03-17T14:07:49.490Z,13.60
2019-03-17T14:10:18.632Z,13.90
2019-03-17T14:12:47.066Z,14.00
2019-03-17T14:15:15.784Z,14.00
2019-03-17T14:17:45.916Z,13.90
2019-03-17T14:20:22.236Z,13.80
2019-03-17T14:22:50.628Z,13.60
2019-03-17T14:25:31.588Z,13.40
2019-03-17T14:28:00.207Z,13.30
2019-03-17T14:30:28.619Z,13.10
2019-03-17T14:32:57.019Z,12.80
2019-03-17T14:35:25.416Z,12.60
2019-03-17T14:37:53.823Z,12.50
2019-03-17T14:40:22.223Z,12.30
2019-03-17T14:42:51.115Z,12.00
2019-03-17T14:45:19.534Z,12.00
2019-03-17T14:47:47.995Z,11.80
2019-03-17T14:50:20.229Z,11.70
2019-03-17T14:52:48.653Z,11.70
2019-03-17T14:55:17.048Z,11.50
2019-03-17T15:02:42.843Z,11.20
2019-03-17T15:05:11.472Z,11.10
2019-03-17T15:07:39.934Z,11.10
2019-03-17T15:10:14.130Z,11.00
2019-03-17T15:12:42.550Z,10.90
2019-03-17T15:15:13.305Z,10.90
2019-03-17T15:17:41.751Z,10.90
2019-03-17T15:20:21.413Z,11.10
2019-03-17T15:22:51.941Z,11.30
2019-03-17T15:25:24.878Z,11.40
2019-03-17T15:27:53.335Z,11.30
2019-03-17T15:30:32.553Z,11.30
2019-03-17T15:33:00.986Z,11.20
2019-03-17T15:35:29.386Z,11.20
2019-03-17T15:37:58.964Z,11.10
2019-03-17T15:40:27.456Z,11.00
2019-03-17T15:42:56.189Z,10.90
2019-03-17T15:45:25.232Z,10.80
2019-03-17T15:47:53.742Z,10.60
2019-03-17T15:50:28.732Z,10.70
2019-03-17T15:52:57.192Z,10.80
2019-03-17T15:55:26.166Z,11.00
2019-03-17T15:57:55.140Z,11.10
2019-03-17T16:00:26.321Z,11.10
2019-03-17T16:02:54.432Z,11.20
2019-03-17T16:05:22.969Z,11.10
2019-03-17T16:07:51.443Z,11.00
2019-03-17T16:10:21.772Z,11.00
2019-03-17T16:12:50.233Z,10.90
2019-03-17T16:15:19.122Z,10.80
2019-03-17T16:17:47.523Z,10.50
2019-03-17T16:20:22.782Z,10.50
2019-03-17T16:22:51.303Z,10.50
2019-03-17T16:25:28.916Z,10.40
2019-03-17T16:27:57.323Z,10.40
2019-03-17T16:30:28.321Z,10.20
2019-03-17T16:32:56.867Z,9.60
